Time;durP1;ratioP1;P1;durP2;ratioP2;P2;SDS_P1;SDS_P2;PMS_P1;PMS_P2;Temp;Humidity;BMP_temperature;BMP_pressure;BME280_temperature;BME280_humidity;BME280_pressure;Samples;Min_cycle;Max_cycle;Signal;HPM_P1;HPM_P2
2021/04/22 00:01:40;;;;;;;9.00;2.80;;;10.20;72.40;;;;;;8352964;28;20280;-72
2021/04/22 00:05:43;;;;;;;10.90;4.47;;;10.10;71.70;;;;;;8355001;28;20451;-73
2021/04/22 00:09:44;;;;;;;6.57;2.93;;;10.00;71.60;;;;;;8352019;28;20234;-73
2021/04/22 00:13:45;;;;;;;5.33;3.00;;;9.90;72.00;;;;;;8350062;28;20467;-73
2021/04/22 00:17:50;;;;;;;6.60;3.10;;;9.90;72.40;;;;;;8358406;28;20558;-72
2021/04/22 00:21:51;;;;;;;12.90;3.93;;;9.70;72.60;;;;;;8371490;28;20456;-74
2021/04/22 00:25:59;;;;;;;8.00;3.53;;;9.60;73.50;;;;;;8349497;28;20462;-72
2021/04/22 00:30:00;;;;;;;13.80;3.47;;;9.50;74.60;;;;;;8353995;28;20197;-73
2021/04/22 00:34:02;;;;;;;5.03;2.93;;;9.40;75.20;;;;;;8358610;28;20466;-73
2021/04/22 00:38:04;;;;;;;16.63;5.37;;;9.30;75.60;;;;;;8350775;28;20518;-72
2021/04/22 00:42:05;;;;;;;15.33;3.20;;;9.30;76.20;;;;;;8347347;28;20816;-72
2021/04/22 00:46:06;;;;;;;9.90;3.50;;;9.20;76.80;;;;;;8353869;28;20544;-73
2021/04/22 00:50:16;;;;;;;17.13;4.07;;;9.00;76.90;;;;;;8360534;28;20458;-72
2021/04/22 00:54:17;;;;;;;5.43;3.10;;;8.90;77.60;;;;;;8354388;28;20638;-72
2021/04/22 00:58:18;;;;;;;6.20;3.23;;;8.70;77.70;;;;;;8344506;28;20539;-72
2021/04/22 01:02:19;;;;;;;8.50;3.63;;;8.50;78.00;;;;;;8348808;28;20449;-72
2021/04/22 01:06:20;;;;;;;14.27;4.13;;;8.30;79.20;;;;;;8340733;28;20450;-72
2021/04/22 01:10:28;;;;;;;5.60;4.80;;;8.10;80.20;;;;;;8354371;28;20195;-72
2021/04/22 01:14:33;;;;;;;7.27;4.13;;;7.90;81.10;;;;;;8350912;28;20546;-72
2021/04/22 01:18:33;;;;;;;12.67;3.90;;;7.80;81.70;;;;;;8352586;28;20469;-72
2021/04/22 01:22:36;;;;;;;11.00;7.00;;;7.60;81.60;;;;;;8348470;28;20468;-73
2021/04/22 01:26:37;;;;;;;13.60;4.17;;;7.50;82.00;;;;;;8347297;28;20191;-72
2021/04/22 01:30:47;;;;;;;8.37;4.23;;;7.30;82.80;;;;;;8347874;28;20449;-73
2021/04/22 01:34:48;;;;;;;14.33;4.20;;;7.20;83.30;;;;;;8336728;28;20219;-73
2021/04/22 01:38:54;;;;;;;10.33;4.17;;;7.10;83.50;;;;;;8336453;28;21016;-73
2021/04/22 01:42:55;;;;;;;22.37;6.47;;;7.00;84.70;;;;;;8366983;28;20808;-73
2021/04/22 01:46:57;;;;;;;16.17;4.57;;;6.90;84.40;;;;;;8346844;28;20473;-73
2021/04/22 01:50:58;;;;;;;11.13;4.23;;;6.80;84.90;;;;;;8351026;28;20452;-72
2021/04/22 01:55:03;;;;;;;13.20;4.57;;;6.60;85.00;;;;;;8342509;28;20490;-73
2021/04/22 01:59:04;;;;;;;14.93;6.13;;;6.60;85.10;;;;;;8346357;28;20200;-72
2021/04/22 02:03:08;;;;;;;7.70;4.60;;;6.50;85.30;;;;;;8346633;28;20441;-72
2021/04/22 02:07:08;;;;;;;15.10;4.03;;;6.40;85.60;;;;;;8350388;28;20260;-72
2021/04/22 02:11:09;;;;;;;14.30;5.87;;;6.30;85.10;;;;;;8329006;28;20452;-72
2021/04/22 02:15:13;;;;;;;5.47;4.80;;;6.30;85.60;;;;;;8344485;28;20198;-72
2021/04/22 02:19:14;;;;;;;14.73;5.13;;;6.20;86.50;;;;;;8345750;28;20706;-72
2021/04/22 02:23:18;;;;;;;9.43;4.17;;;6.10;86.80;;;;;;8348103;28;21364;-72
2021/04/22 02:27:23;;;;;;;23.27;4.20;;;5.90;87.20;;;;;;8348497;28;20548;-72
2021/04/22 02:31:23;;;;;;;16.17;4.73;;;5.90;86.70;;;;;;8347553;28;20449;-72
2021/04/22 02:35:29;;;;;;;10.80;5.13;;;5.80;86.60;;;;;;8331245;28;20543;-73
2021/04/22 02:39:37;;;;;;;17.30;5.23;;;5.80;86.90;;;;;;8336893;28;20654;-74
2021/04/22 02:43:42;;;;;;;14.07;4.87;;;5.70;87.10;;;;;;8347562;28;21075;-73
2021/04/22 02:47:43;;;;;;;12.47;3.87;;;5.60;87.60;;;;;;8341534;28;20932;-72
2021/04/22 02:51:44;;;;;;;17.73;4.80;;;5.50;87.90;;;;;;8348338;28;20773;-71
2021/04/22 02:55:45;;;;;;;9.37;5.27;;;5.50;88.20;;;;;;8350564;28;20952;-73
2021/04/22 02:59:46;;;;;;;12.60;4.30;;;5.40;88.40;;;;;;8358190;28;20194;-72
2021/04/22 03:03:50;;;;;;;10.40;6.60;;;5.30;88.50;;;;;;8349420;28;20557;-73
2021/04/22 03:07:51;;;;;;;12.83;5.93;;;5.30;89.00;;;;;;8343905;28;20208;-73
2021/04/22 03:11:52;;;;;;;11.70;4.40;;;5.20;89.40;;;;;;8319323;28;20457;-73
2021/04/22 03:15:53;;;;;;;23.60;7.07;;;5.20;89.90;;;;;;8345359;28;20956;-72
2021/04/22 03:19:54;;;;;;;15.87;5.47;;;5.10;89.90;;;;;;8337870;28;21079;-72
2021/04/22 03:23:54;;;;;;;11.10;6.90;;;5.00;90.40;;;;;;8340495;28;20214;-72
2021/04/22 03:27:58;;;;;;;19.90;5.80;;;4.90;90.50;;;;;;8354431;28;20221;-72
2021/04/22 03:31:59;;;;;;;28.43;7.13;;;4.90;90.60;;;;;;8360162;28;20453;-72
2021/04/22 03:36:03;;;;;;;11.47;5.87;;;4.90;90.60;;;;;;8338483;28;20513;-72
2021/04/22 03:40:05;;;;;;;30.13;6.83;;;4.80;90.80;;;;;;8348280;28;20561;-72
2021/04/22 03:44:06;;;;;;;18.33;5.80;;;4.80;91.10;;;;;;8354798;28;20879;-72
2021/04/22 03:48:10;;;;;;;13.73;5.63;;;4.90;91.10;;;;;;8344566;28;20444;-72
2021/04/22 03:52:14;;;;;;;29.43;6.03;;;4.90;91.10;;;;;;8358168;28;20475;-72
2021/04/22 03:56:19;;;;;;;13.07;5.40;;;4.90;91.10;;;;;;8360943;28;20454;-72
2021/04/22 04:00:21;;;;;;;12.80;5.20;;;4.80;91.10;;;;;;8345231;28;20454;-72
2021/04/22 04:04:22;;;;;;;11.20;4.80;;;4.80;91.10;;;;;;8351027;28;20692;-72
2021/04/22 04:08:23;;;;;;;17.63;6.43;;;4.80;91.20;;;;;;8350651;28;20955;-73
2021/04/22 04:12:24;;;;;;;20.87;6.20;;;4.70;91.20;;;;;;8339352;28;20558;-72
2021/04/22 04:16:24;;;;;;;31.17;7.37;;;4.70;91.30;;;;;;8355222;28;20596;-74
2021/04/22 04:20:25;;;;;;;17.00;5.50;;;4.70;91.30;;;;;;8351555;28;20533;-73
2021/04/22 04:24:26;;;;;;;15.47;5.53;;;4.70;91.20;;;;;;8344930;28;20210;-73
2021/04/22 04:28:34;;;;;;;14.00;5.63;;;4.70;91.20;;;;;;8338701;28;20255;-73
2021/04/22 04:32:36;;;;;;;15.90;5.50;;;4.80;91.20;;;;;;8336361;28;20201;-73
2021/04/22 04:36:37;;;;;;;21.73;6.43;;;4.80;91.10;;;;;;8340671;28;20460;-73
2021/04/22 04:40:38;;;;;;;15.13;5.63;;;4.90;91.30;;;;;;8343614;28;20435;-73
2021/04/22 04:44:38;;;;;;;15.00;5.97;;;4.90;91.30;;;;;;8352783;28;21019;-74
2021/04/22 04:48:39;;;;;;;12.70;5.50;;;5.00;91.20;;;;;;8349386;28;20191;-74
2021/04/22 04:52:40;;;;;;;23.17;7.40;;;5.00;91.40;;;;;;8352417;28;20274;-74
2021/04/22 04:56:45;;;;;;;12.57;5.20;;;5.20;91.20;;;;;;8357168;28;20438;-73
2021/04/22 05:00:48;;;;;;;23.90;5.90;;;5.30;91.10;;;;;;8346085;28;20177;-74
2021/04/22 05:04:49;;;;;;;14.27;6.00;;;5.40;91.00;;;;;;8363925;28;20476;-74
2021/04/22 05:09:00;;;;;;;31.07;8.73;;;5.60;90.90;;;;;;8329128;28;20883;-75
2021/04/22 05:13:02;;;;;;;22.30;6.40;;;5.80;90.70;;;;;;8333338;28;20201;-74
2021/04/22 05:17:02;;;;;;;14.27;5.13;;;5.90;90.30;;;;;;8356036;28;20522;-73
2021/04/22 05:21:03;;;;;;;17.20;6.03;;;6.10;90.40;;;;;;8352830;28;20452;-75
2021/04/22 05:30:03;;;;;;;14.00;7.50;;;6.40;90.00;;;;;;8369524;28;20456;-73
2021/04/22 05:34:06;;;;;;;21.63;5.70;;;6.40;89.60;;;;;;8346372;28;21041;-74
2021/04/22 05:38:07;;;;;;;15.83;5.97;;;6.40;89.80;;;;;;8357036;28;20531;-72
2021/04/22 05:42:15;;;;;;;12.70;5.37;;;6.50;89.70;;;;;;8350386;28;20970;-73
2021/04/22 05:46:19;;;;;;;9.03;5.10;;;6.60;89.40;;;;;;8350987;28;20491;-75
2021/04/22 05:50:21;;;;;;;30.73;6.40;;;6.70;88.90;;;;;;8374476;28;20802;-75
2021/04/22 05:54:24;;;;;;;18.60;7.40;;;6.90;88.70;;;;;;8346226;28;20449;-74
2021/04/22 05:58:35;;;;;;;21.27;7.13;;;7.00;88.30;;;;;;8368836;28;20442;-75
2021/04/22 06:02:35;;;;;;;20.80;6.00;;;7.10;88.00;;;;;;8361397;28;20453;-75
2021/04/22 06:06:37;;;;;;;15.37;6.47;;;7.30;87.50;;;;;;8363353;28;20439;-75
2021/04/22 06:10:45;;;;;;;19.67;6.30;;;7.50;87.00;;;;;;8354030;28;20672;-74
2021/04/22 06:14:51;;;;;;;21.63;6.50;;;7.50;86.60;;;;;;8355185;28;20499;-74
2021/04/22 06:18:53;;;;;;;23.33;7.77;;;7.50;86.80;;;;;;8345936;28;20474;-74
2021/04/22 06:22:57;;;;;;;32.13;8.80;;;7.50;86.90;;;;;;8346850;28;20484;-74
2021/04/22 06:27:03;;;;;;;22.07;7.87;;;7.60;87.10;;;;;;8361495;28;20446;-74
2021/04/22 06:31:07;;;;;;;21.60;7.33;;;7.80;86.80;;;;;;8377440;28;20426;-73
2021/04/22 06:35:09;;;;;;;25.13;7.73;;;7.90;86.80;;;;;;8354883;28;20909;-73
2021/04/22 06:39:19;;;;;;;32.27;8.60;;;8.10;86.20;;;;;;8353379;28;20217;-73
2021/04/22 06:43:28;;;;;;;30.83;6.20;;;8.60;86.00;;;;;;8351632;28;20468;-74
2021/04/22 06:47:31;;;;;;;24.43;6.30;;;9.50;84.20;;;;;;8353685;28;20456;-75
2021/04/22 06:51:31;;;;;;;19.57;8.07;;;10.40;81.50;;;;;;8377673;28;20444;-73
2021/04/22 06:55:32;;;;;;;33.40;6.70;;;11.10;78.10;;;;;;8351649;28;20441;-73
2021/04/22 06:59:33;;;;;;;17.10;7.50;;;11.60;76.00;;;;;;8347499;28;20612;-73
2021/04/22 07:03:36;;;;;;;13.57;6.20;;;12.00;74.10;;;;;;8350033;28;21033;-75
2021/04/22 07:07:42;;;;;;;18.77;7.77;;;12.20;70.40;;;;;;8343753;28;20204;-74
2021/04/22 07:11:50;;;;;;;22.50;7.40;;;12.50;69.00;;;;;;8371568;28;20468;-74
2021/04/22 07:15:55;;;;;;;16.33;6.90;;;12.90;68.00;;;;;;8367874;28;20457;-75
2021/04/22 07:19:56;;;;;;;33.27;8.90;;;12.90;63.70;;;;;;8352852;28;20282;-75
2021/04/22 07:23:58;;;;;;;31.40;8.90;;;13.00;63.90;;;;;;8342060;28;20468;-75
2021/04/22 07:28:06;;;;;;;28.20;7.50;;;13.10;63.10;;;;;;8355896;28;20472;-74
2021/04/22 07:32:11;;;;;;;31.30;9.63;;;13.20;62.80;;;;;;8349471;28;20813;-75
2021/04/22 07:36:12;;;;;;;26.30;7.73;;;13.30;62.80;;;;;;8342303;28;20455;-75
2021/04/22 07:40:23;;;;;;;26.33;7.30;;;13.60;61.90;;;;;;8340527;28;20447;-75
2021/04/22 07:44:24;;;;;;;22.23;7.70;;;13.60;59.70;;;;;;8349583;28;20466;-74
2021/04/22 07:48:26;;;;;;;42.10;8.93;;;13.70;55.90;;;;;;8353999;28;20474;-74
2021/04/22 07:52:27;;;;;;;17.40;7.70;;;13.70;55.10;;;;;;8360702;28;20882;-75
2021/04/22 07:56:47;;;;;;;20.50;7.20;;;13.90;55.40;;;;;;8347432;28;20834;-75
2021/04/22 08:00:49;;;;;;;10.80;6.37;;;14.30;54.30;;;;;;8346115;28;20907;-75
2021/04/22 08:04:51;;;;;;;21.80;7.90;;;14.30;53.20;;;;;;8348757;28;20561;-75
2021/04/22 08:08:56;;;;;;;26.53;7.90;;;14.10;53.90;;;;;;8335082;28;21048;-75
2021/04/22 08:12:59;;;;;;;15.43;6.50;;;14.20;54.30;;;;;;8331841;28;20452;-75
2021/04/22 08:17:05;;;;;;;16.50;8.57;;;14.20;53.20;;;;;;8348900;28;20461;-75
2021/04/22 08:21:06;;;;;;;24.87;7.53;;;14.20;52.00;;;;;;8348040;28;20987;-75
2021/04/22 08:25:10;;;;;;;15.23;6.53;;;14.70;52.40;;;;;;8358525;28;20537;-75
2021/04/22 08:29:13;;;;;;;15.53;6.23;;;16.00;49.80;;;;;;8363169;28;20790;-75
2021/04/22 08:33:17;;;;;;;20.23;6.50;;;16.70;46.70;;;;;;8346590;28;20949;-75
2021/04/22 08:37:20;;;;;;;11.83;7.63;;;17.60;45.80;;;;;;8355044;28;20471;-75
2021/04/22 08:41:24;;;;;;;22.40;9.07;;;18.30;45.50;;;;;;8354335;28;20442;-75
2021/04/22 08:45:28;;;;;;;22.87;9.17;;;17.70;45.30;;;;;;8347250;28;20441;-75
2021/04/22 08:49:32;;;;;;;17.47;7.90;;;17.60;45.00;;;;;;8353180;28;20811;-74
2021/04/22 08:53:35;;;;;;;17.20;6.57;;;17.90;44.10;;;;;;8353096;28;20423;-74
2021/04/22 08:57:42;;;;;;;22.13;6.77;;;18.20;43.60;;;;;;8355562;28;20446;-74
2021/04/22 09:01:42;;;;;;;11.33;6.10;;;18.90;41.30;;;;;;8346366;28;20539;-75
2021/04/22 09:05:46;;;;;;;15.50;6.03;;;19.50;40.60;;;;;;8346641;28;20445;-75
2021/04/22 09:09:49;;;;;;;13.50;5.90;;;20.20;39.70;;;;;;8353398;28;20716;-75
2021/04/22 09:13:52;;;;;;;18.80;6.60;;;20.80;39.10;;;;;;8357785;28;20454;-75
2021/04/22 09:18:00;;;;;;;19.23;6.93;;;20.70;38.00;;;;;;8327497;28;20473;-75
2021/04/22 09:22:04;;;;;;;14.83;6.30;;;21.30;38.40;;;;;;8350693;28;20553;-75
2021/04/22 09:26:10;;;;;;;14.67;6.13;;;21.80;37.50;;;;;;8348723;28;20480;-75
2021/04/22 09:30:20;;;;;;;10.00;5.60;;;21.90;38.00;;;;;;8364063;28;20586;-77
2021/04/22 09:34:21;;;;;;;12.03;6.00;;;22.10;36.10;;;;;;8336884;28;20443;-76
2021/04/22 09:38:22;;;;;;;13.70;6.27;;;21.70;36.60;;;;;;8344011;28;20454;-74
2021/04/22 09:42:26;;;;;;;11.50;6.13;;;21.20;37.10;;;;;;8345540;28;20473;-74
2021/04/22 09:46:29;;;;;;;15.93;6.00;;;21.00;38.00;;;;;;8339928;28;20218;-74
2021/04/22 09:50:31;;;;;;;12.13;5.23;;;21.10;38.20;;;;;;8333981;28;20475;-75
2021/04/22 09:54:42;;;;;;;10.20;5.20;;;21.20;37.00;;;;;;8319649;28;20541;-74
2021/04/22 09:59:05;;;;;;;10.53;5.83;;;21.10;37.30;;;;;;8348966;28;20459;-75
2021/04/22 10:03:48;;;;;;;16.87;5.30;;;21.40;37.30;;;;;;8352117;28;20469;-77
2021/04/22 10:07:49;;;;;;;14.00;5.43;;;21.60;37.00;;;;;;8284701;28;20509;-75
2021/04/22 10:11:50;;;;;;;14.17;5.03;;;21.80;36.70;;;;;;8332941;28;20960;-75
2021/04/22 10:15:55;;;;;;;14.10;6.20;;;21.80;35.60;;;;;;8322356;28;20448;-75
2021/04/22 10:20:07;;;;;;;15.77;5.60;;;21.40;36.00;;;;;;8355742;28;20228;-75
2021/04/22 10:24:12;;;;;;;16.20;5.60;;;21.10;36.90;;;;;;8347047;28;20465;-76
2021/04/22 10:28:14;;;;;;;8.03;4.60;;;21.20;37.70;;;;;;8353007;28;20505;-74
2021/04/22 10:32:16;;;;;;;8.93;4.93;;;21.20;37.20;;;;;;8344854;28;20438;-74
2021/04/22 10:36:21;;;;;;;8.93;5.00;;;21.10;38.10;;;;;;8365443;28;20531;-73
2021/04/22 10:40:28;;;;;;;12.00;6.23;;;21.20;37.30;;;;;;8343988;28;20433;-73
2021/04/22 10:44:33;;;;;;;15.17;5.40;;;21.00;35.50;;;;;;8336230;28;20477;-74
2021/04/22 10:48:34;;;;;;;13.03;6.73;;;20.70;37.80;;;;;;8333021;28;20445;-74
2021/04/22 10:52:43;;;;;;;15.20;7.00;;;20.90;37.50;;;;;;8331066;28;20490;-74
2021/04/22 10:56:45;;;;;;;19.17;7.23;;;20.70;38.00;;;;;;8349194;28;20183;-74
2021/04/22 11:00:56;;;;;;;25.30;7.23;;;20.60;38.20;;;;;;8357076;28;20477;-74
2021/04/22 11:04:56;;;;;;;17.77;7.10;;;20.50;38.70;;;;;;8340014;28;20526;-74
2021/04/22 11:08:57;;;;;;;19.73;8.07;;;20.40;38.40;;;;;;8341821;28;20464;-76
2021/04/22 11:13:10;;;;;;;18.37;7.40;;;20.30;38.00;;;;;;8351277;28;20667;-75
2021/04/22 11:17:11;;;;;;;12.03;6.77;;;19.90;38.70;;;;;;8341621;28;20215;-74
2021/04/22 11:21:25;;;;;;;18.77;7.63;;;20.00;38.50;;;;;;8338097;28;20456;-75
2021/04/22 11:25:28;;;;;;;15.50;8.03;;;19.70;38.50;;;;;;8340951;28;21172;-75
2021/04/22 11:30:05;;;;;;;13.37;6.67;;;19.80;38.20;;;;;;8354246;28;20441;-75
2021/04/22 11:34:07;;;;;;;15.30;7.90;;;20.10;38.20;;;;;;8290415;28;20449;-75
2021/04/22 11:38:10;;;;;;;14.40;7.73;;;20.10;38.20;;;;;;8335973;28;20501;-75
2021/04/22 11:42:11;;;;;;;10.07;6.73;;;20.10;38.70;;;;;;8343376;28;20461;-75
2021/04/22 11:46:20;;;;;;;12.67;6.50;;;20.20;37.50;;;;;;8334410;28;20523;-75
2021/04/22 11:50:28;;;;;;;16.00;7.33;;;20.50;38.00;;;;;;8336673;28;20449;-75
2021/04/22 11:54:32;;;;;;;15.40;7.30;;;20.60;38.60;;;;;;8342284;28;20819;-74
2021/04/22 11:58:34;;;;;;;16.10;8.03;;;20.50;38.00;;;;;;8349160;28;20473;-74
2021/04/22 12:02:36;;;;;;;15.10;8.30;;;20.60;38.20;;;;;;8350124;28;20459;-74
2021/04/22 12:06:37;;;;;;;18.03;8.03;;;20.80;37.10;;;;;;8314115;28;20424;-74
2021/04/22 12:10:48;;;;;;;19.87;9.30;;;20.70;36.90;;;;;;8342204;28;20495;-75
2021/04/22 12:14:55;;;;;;;15.70;9.10;;;20.60;36.50;;;;;;8344874;28;20211;-75
2021/04/22 12:18:57;;;;;;;13.83;10.47;;;20.50;37.50;;;;;;8351609;28;20465;-75
2021/04/22 12:22:58;;;;;;;21.27;11.00;;;19.80;36.70;;;;;;8354154;28;20548;-74
2021/04/22 12:26:59;;;;;;;19.93;9.97;;;19.40;38.90;;;;;;8344709;28;20538;-74
2021/04/22 12:31:04;;;;;;;21.00;11.77;;;19.50;38.40;;;;;;8345149;28;20446;-75
2021/04/22 12:35:16;;;;;;;24.87;12.63;;;19.50;39.60;;;;;;8350090;28;20872;-75
2021/04/22 12:39:49;;;;;;;27.50;11.30;;;19.70;39.90;;;;;;8346442;28;21062;-74
2021/04/22 12:43:50;;;;;;;16.73;11.23;;;20.00;39.90;;;;;;8343134;28;20483;-75
2021/04/22 12:48:00;;;;;;;18.67;11.43;;;20.20;39.60;;;;;;8337024;28;20448;-74
2021/04/22 12:52:04;;;;;;;37.70;13.10;;;20.20;39.00;;;;;;8360572;28;20442;-75
2021/04/22 12:56:11;;;;;;;21.63;11.37;;;20.10;38.70;;;;;;8339605;28;20468;-74
2021/04/22 13:00:13;;;;;;;16.80;11.80;;;20.10;38.70;;;;;;8363738;28;20520;-74
2021/04/22 13:04:15;;;;;;;20.47;9.50;;;20.10;38.70;;;;;;8340411;28;20469;-74
2021/04/22 13:08:16;;;;;;;25.60;14.47;;;20.20;39.50;;;;;;8347996;28;20437;-74
2021/04/22 13:12:18;;;;;;;17.27;10.20;;;20.30;39.00;;;;;;8350924;28;20453;-75
2021/04/22 13:16:23;;;;;;;18.87;11.87;;;20.20;39.10;;;;;;8334031;28;20461;-74
2021/04/22 13:20:28;;;;;;;22.50;12.73;;;20.10;39.10;;;;;;8346363;28;20488;-74
2021/04/22 13:24:37;;;;;;;23.23;13.73;;;19.90;38.50;;;;;;8330275;28;20528;-74
2021/04/22 13:28:37;;;;;;;23.80;12.17;;;19.50;39.30;;;;;;8363303;28;20727;-73
2021/04/22 13:32:44;;;;;;;20.50;12.43;;;19.20;40.20;;;;;;8357337;28;20450;-75
2021/04/22 13:37:00;;;;;;;23.10;14.10;;;19.20;40.10;;;;;;8355919;28;21169;-75
2021/04/22 13:41:08;;;;;;;20.10;11.80;;;19.10;40.60;;;;;;8336870;28;21039;-75
2021/04/22 13:45:11;;;;;;;15.97;10.97;;;19.40;40.10;;;;;;8335588;28;20477;-75
2021/04/22 13:49:13;;;;;;;18.30;10.63;;;19.60;39.70;;;;;;8345164;28;20449;-74
2021/04/22 13:53:15;;;;;;;21.33;11.83;;;19.50;39.60;;;;;;8341082;28;20979;-76
2021/04/22 13:57:22;;;;;;;13.70;9.20;;;19.40;39.60;;;;;;8343824;28;20445;-74
2021/04/22 14:01:27;;;;;;;22.40;10.37;;;19.50;40.90;;;;;;8344514;28;20446;-74
2021/04/22 14:05:33;;;;;;;21.13;9.77;;;19.60;39.90;;;;;;8329951;28;20826;-75
2021/04/22 14:09:38;;;;;;;16.30;9.73;;;19.60;39.80;;;;;;8360490;28;20469;-76
2021/04/22 14:13:41;;;;;;;23.37;9.60;;;19.60;39.50;;;;;;8326846;28;20450;-75
2021/04/22 14:17:42;;;;;;;14.70;8.30;;;19.80;39.90;;;;;;8351945;28;20245;-75
2021/04/22 14:21:43;;;;;;;24.13;9.50;;;19.90;39.30;;;;;;8337829;28;20453;-74
2021/04/22 14:25:44;;;;;;;21.03;10.57;;;19.70;38.90;;;;;;8337551;28;20203;-74
2021/04/22 14:29:45;;;;;;;17.13;10.37;;;19.60;38.70;;;;;;8330078;28;20482;-74
2021/04/22 14:33:46;;;;;;;20.70;10.30;;;19.50;39.80;;;;;;8334692;28;20859;-74
2021/04/22 14:37:49;;;;;;;21.27;9.60;;;19.30;39.90;;;;;;8347478;28;20187;-74
2021/04/22 14:41:52;;;;;;;16.43;9.90;;;19.20;40.40;;;;;;8346935;28;20236;-74
2021/04/22 14:45:53;;;;;;;19.30;10.57;;;19.40;41.00;;;;;;8347630;28;20491;-75
2021/04/22 14:49:54;;;;;;;22.40;9.87;;;19.30;39.80;;;;;;8354508;28;20441;-75
2021/04/22 14:53:55;;;;;;;26.77;10.93;;;19.20;40.50;;;;;;8340125;28;20290;-74
2021/04/22 14:57:55;;;;;;;19.87;10.03;;;19.10;41.40;;;;;;8350390;28;20499;-75
2021/04/22 15:01:59;;;;;;;17.47;11.27;;;19.20;41.30;;;;;;8360816;28;20210;-74
2021/04/22 15:06:08;;;;;;;17.10;8.20;;;19.20;39.40;;;;;;8339934;28;20187;-74
2021/04/22 15:10:12;;;;;;;15.10;8.50;;;18.90;39.90;;;;;;8350475;28;20445;-75
2021/04/22 15:14:16;;;;;;;17.80;9.17;;;18.90;41.40;;;;;;8355064;28;21025;-75
2021/04/22 15:18:18;;;;;;;13.37;8.50;;;19.10;41.30;;;;;;8360842;28;21019;-75
2021/04/22 15:22:20;;;;;;;15.73;8.63;;;18.90;40.00;;;;;;8350587;28;20218;-75
2021/04/22 15:26:24;;;;;;;20.57;9.00;;;18.70;39.40;;;;;;8324190;28;21256;-75
2021/04/22 15:30:27;;;;;;;20.20;8.67;;;18.60;40.50;;;;;;8356715;28;20440;-74
2021/04/22 15:34:29;;;;;;;19.67;9.13;;;18.70;40.60;;;;;;8347215;28;20456;-75
2021/04/22 15:38:33;;;;;;;18.53;9.10;;;18.60;40.00;;;;;;8365928;28;20459;-74
2021/04/22 15:42:34;;;;;;;14.20;8.57;;;18.40;40.40;;;;;;8349610;28;20476;-73
2021/04/22 15:46:37;;;;;;;16.80;8.30;;;18.60;41.50;;;;;;8348404;28;20209;-74
2021/04/22 15:50:41;;;;;;;14.40;8.30;;;18.70;40.80;;;;;;8346939;28;20680;-74
2021/04/22 15:54:42;;;;;;;17.53;9.10;;;18.60;40.10;;;;;;8351023;28;20453;-74
2021/04/22 15:58:43;;;;;;;12.23;8.70;;;18.40;41.60;;;;;;8350303;28;20547;-74
2021/04/22 16:02:44;;;;;;;16.90;8.07;;;18.40;40.50;;;;;;8353577;28;20563;-74
2021/04/22 16:06:47;;;;;;;19.23;11.77;;;18.20;40.90;;;;;;8332663;28;20446;-74
2021/04/22 16:10:48;;;;;;;18.57;10.50;;;18.10;40.80;;;;;;8361947;28;20197;-75
2021/04/22 16:14:49;;;;;;;17.30;9.80;;;17.80;41.30;;;;;;8335057;28;20463;-73
2021/04/22 16:18:50;;;;;;;18.93;10.23;;;17.70;41.40;;;;;;8340434;28;20955;-73
2021/04/22 16:22:51;;;;;;;29.93;13.43;;;17.40;42.40;;;;;;8341143;28;21001;-73
2021/04/22 16:26:52;;;;;;;49.10;17.40;;;17.30;43.40;;;;;;8324584;28;20196;-72
2021/04/22 16:30:52;;;;;;;30.67;17.47;;;17.50;44.20;;;;;;8345617;28;20454;-72
2021/04/22 16:34:57;;;;;;;30.97;16.47;;;17.60;43.80;;;;;;8340106;28;20289;-73
2021/04/22 16:38:57;;;;;;;44.07;18.80;;;17.50;44.60;;;;;;8347992;28;20214;-75
2021/04/22 16:42:59;;;;;;;37.10;17.80;;;17.30;44.10;;;;;;8346506;28;20470;-72
2021/04/22 16:47:00;;;;;;;37.20;19.90;;;17.10;44.80;;;;;;8345006;28;20181;-74
2021/04/22 16:51:08;;;;;;;30.63;16.70;;;17.00;45.60;;;;;;8330104;28;20447;-73
2021/04/22 16:55:15;;;;;;;44.47;19.67;;;17.00;46.70;;;;;;8339192;28;20454;-73
2021/04/22 16:59:19;;;;;;;37.70;18.93;;;16.90;44.90;;;;;;8341312;28;20457;-73
2021/04/22 17:03:20;;;;;;;29.83;18.13;;;16.60;45.40;;;;;;8338017;28;20477;-74
2021/04/22 17:07:22;;;;;;;26.43;14.83;;;16.40;46.40;;;;;;8344661;28;20446;-76
2021/04/22 17:11:26;;;;;;;31.77;12.57;;;16.20;47.20;;;;;;8349066;28;20199;-73
2021/04/22 17:15:28;;;;;;;33.33;12.83;;;15.90;48.10;;;;;;8343761;28;20544;-74
2021/04/22 17:19:29;;;;;;;31.47;13.37;;;15.70;47.70;;;;;;8349090;28;20536;-74
2021/04/22 17:23:32;;;;;;;34.70;16.10;;;15.60;48.90;;;;;;8349828;28;20472;-74
2021/04/22 17:27:37;;;;;;;37.60;18.40;;;15.50;49.60;;;;;;8351733;28;20198;-73
2021/04/22 17:31:38;;;;;;;28.17;15.67;;;15.30;49.30;;;;;;8347862;28;20450;-72
2021/04/22 17:35:46;;;;;;;31.43;15.50;;;15.30;48.00;;;;;;8346949;28;20823;-74
2021/04/22 17:39:49;;;;;;;30.50;16.17;;;15.40;48.60;;;;;;8345499;28;21015;-73
2021/04/22 17:43:53;;;;;;;37.80;17.50;;;15.50;49.40;;;;;;8341468;28;20206;-73
2021/04/22 17:47:57;;;;;;;21.80;11.93;;;15.50;50.10;;;;;;8355566;28;20453;-73
2021/04/22 17:51:58;;;;;;;26.40;11.93;;;15.40;50.20;;;;;;8360510;28;20449;-73
2021/04/22 17:56:00;;;;;;;32.00;12.40;;;15.20;50.40;;;;;;8361090;28;20499;-72
2021/04/22 18:00:08;;;;;;;24.93;11.87;;;14.80;51.40;;;;;;8359682;28;20523;-73
2021/04/22 18:04:13;;;;;;;24.50;10.97;;;14.50;52.10;;;;;;8354288;28;20477;-72
2021/04/22 18:08:19;;;;;;;30.23;10.63;;;14.20;52.70;;;;;;8350984;28;20452;-74
2021/04/22 18:12:22;;;;;;;24.00;10.57;;;13.90;53.50;;;;;;8357727;28;20456;-74
2021/04/22 18:16:28;;;;;;;24.90;10.33;;;13.60;54.20;;;;;;8377455;28;20476;-73
2021/04/22 18:20:33;;;;;;;29.47;12.07;;;13.40;55.40;;;;;;8352802;28;20537;-74
2021/04/22 18:24:33;;;;;;;27.53;13.63;;;13.10;56.20;;;;;;8347610;28;20564;-73
2021/04/22 18:28:34;;;;;;;19.93;11.60;;;12.90;56.90;;;;;;8352688;28;20479;-74
2021/04/22 18:32:35;;;;;;;30.90;12.50;;;12.70;57.80;;;;;;8352172;28;20194;-73
2021/04/22 18:36:37;;;;;;;33.87;11.50;;;12.50;58.50;;;;;;8361315;28;20571;-74
2021/04/22 18:40:40;;;;;;;19.07;10.00;;;12.30;59.20;;;;;;8368025;28;20366;-73
2021/04/22 18:44:42;;;;;;;32.77;11.20;;;12.10;59.90;;;;;;8351322;28;20470;-74
2021/04/22 18:48:43;;;;;;;30.90;12.00;;;11.90;60.00;;;;;;8357829;28;20454;-74
2021/04/22 18:52:44;;;;;;;28.37;9.37;;;11.80;61.20;;;;;;8345422;28;20445;-73
2021/04/22 18:56:50;;;;;;;26.77;10.13;;;11.60;61.90;;;;;;8363231;28;20547;-74
2021/04/22 19:00:55;;;;;;;21.30;10.20;;;11.50;62.30;;;;;;8366629;28;20452;-74
2021/04/22 19:04:55;;;;;;;19.70;8.30;;;11.30;62.80;;;;;;8353630;28;20527;-73
2021/04/22 19:08:58;;;;;;;18.40;8.70;;;11.20;63.70;;;;;;8355978;28;20214;-74
2021/04/22 19:12:59;;;;;;;22.87;8.73;;;11.00;64.20;;;;;;8353113;28;20457;-74
2021/04/22 19:17:02;;;;;;;30.97;10.33;;;10.90;64.60;;;;;;8357932;28;20569;-74
2021/04/22 19:21:03;;;;;;;18.10;9.40;;;10.80;65.30;;;;;;8346187;28;20457;-74
2021/04/22 19:25:06;;;;;;;29.17;9.50;;;10.70;65.80;;;;;;8345221;28;20476;-73
2021/04/22 19:29:08;;;;;;;18.07;8.83;;;10.70;66.30;;;;;;8356898;28;20947;-73
2021/04/22 19:33:11;;;;;;;16.23;8.70;;;10.50;67.10;;;;;;8372217;28;20813;-72
2021/04/22 19:37:36;;;;;;;18.83;8.60;;;10.50;67.90;;;;;;8354588;28;20785;-74
2021/04/22 19:41:43;;;;;;;20.10;9.73;;;10.40;68.00;;;;;;8350418;28;20466;-75
2021/04/22 19:45:45;;;;;;;24.50;9.27;;;10.30;68.30;;;;;;8343646;28;20510;-75
2021/04/22 19:49:56;;;;;;;25.37;8.60;;;10.20;68.50;;;;;;8342222;28;20438;-75
2021/04/22 19:54:10;;;;;;;15.73;8.03;;;10.10;69.10;;;;;;8358044;28;20843;-75
2021/04/22 19:58:23;;;;;;;20.77;9.70;;;10.00;70.00;;;;;;8339195;28;20487;-75
2021/04/22 20:02:24;;;;;;;22.40;9.73;;;9.90;71.40;;;;;;8344327;28;20506;-73
2021/04/22 20:06:30;;;;;;;30.83;10.30;;;9.80;72.30;;;;;;8343775;28;20445;-73
2021/04/22 20:10:30;;;;;;;21.83;11.43;;;9.70;72.50;;;;;;8316939;28;20453;-73
2021/04/22 20:14:31;;;;;;;31.70;12.80;;;9.60;73.30;;;;;;8340727;28;20447;-74
2021/04/22 20:18:36;;;;;;;25.30;11.30;;;9.50;75.10;;;;;;8359291;28;20252;-73
2021/04/22 20:22:41;;;;;;;28.07;11.13;;;9.40;76.20;;;;;;8359269;28;20216;-74
2021/04/22 20:26:43;;;;;;;30.17;10.40;;;9.30;77.10;;;;;;8371700;28;20469;-74
2021/04/22 20:30:45;;;;;;;30.13;10.80;;;9.20;76.60;;;;;;8366737;28;20451;-74
2021/04/22 20:34:54;;;;;;;22.50;10.27;;;9.10;77.00;;;;;;8375805;28;20438;-73
2021/04/22 20:38:56;;;;;;;30.67;11.63;;;9.00;78.50;;;;;;8377053;28;20446;-73
2021/04/22 20:43:01;;;;;;;22.83;10.90;;;8.90;78.10;;;;;;8359711;28;20466;-74
2021/04/22 20:47:02;;;;;;;16.60;9.63;;;8.80;78.80;;;;;;8357597;28;20441;-73
2021/04/22 20:51:04;;;;;;;21.10;10.17;;;8.80;78.90;;;;;;8357276;28;20497;-73
2021/04/22 20:55:09;;;;;;;22.87;10.67;;;8.80;78.90;;;;;;8372670;28;20513;-73
2021/04/22 20:59:17;;;;;;;20.23;10.10;;;8.70;78.80;;;;;;8338046;28;20441;-75